Aérodrome :
LOGIN :

S'inscrire | Disclaimer

   EN    FR    IT 

 










Légende :    VFR   VFR Marginal   IFR   IFR Intensif   IFR Très Intensif
Visi : 
Plafond : 
>= 8 km
>= 3000ft
5 à 8 km
1000 à 3000 ft
1500m à 5 km
500 à 1000 ft
800 à 1500m
200 à 500 ft
< 800m
< 200 ft
Symboles :   Orages  Brouillard  Fortes neiges  Fortes précipitations  Vent > 20 kt
SIGMETs :   Divers  Orages  Givrage  Turbulence  Onde Orograph.  Cendres Volcan.






- Altitude de l'aérodrome : 194 ft


EBCV - Chièvres

DERNIER METAR :
  • 131055Z AUTO 27021KT 9999 -RA OVC012/// 05/04 Q0979 GRN

METARs EXPIRÉS :
  • 131025Z AUTO 27021KT 9999 -RA OVC013/// 05/04 Q0978 GRN
  • 130955Z AUTO 26019KT 9999 -RA OVC014/// 05/04 Q0977 GRN
  • 130925Z AUTO 27018KT 9999 -RA OVC014/// 05/04 Q0976 GRN
  • 130904Z AUTO 27019KT 9999 -RA OVC009/// 06/04 Q0975 GRN
  • 130842Z AUTO 26014KT 3600 -RA OVC010/// 06/05 Q0974 YLO
  • 130825Z AUTO 26015KT 6000 -RA OVC010/// 06/05 Q0974 GRN

TAF TAF EBCV
Valide du 13 à 10h jusqu'au 13 à 19h UTC


130841Z 1310/1319 23012KT 9999 BKN015
TEMPO 1310/1315 26015G25KT 4000 -SHRA SCT008 BKN012
TEMPO 1307/1315 26020G30KT 2000 SHRA BKN010CB BKN030
BECMG 1310/1312 28015G25KT BY EBWM



MET'MAP, la Météo Aéronautique d'un coup d'oeil ! - Copyright ORBIFLY Décembre 2007 - Disclaimer

ORBIFLY MET'MAP TEAM :

Programmation & Développement : Alexandra Zaïnal
Sur une idée originale de : Baudouin d'Aumeries
Assistance à la programmation : Marc-Olivier Méhu
Soutien technique & logistique : Manuel Goepfert

Contact : metmap@orbifly.com




SOURCES & CREDITS :

   NOAA